Time;durP1;ratioP1;P1;durP2;ratioP2;P2;SDS_P1;SDS_P2;PMS_P1;PMS_P2;Temp;Humidity;BMP_temperature;BMP_pressure;BME280_temperature;BME280_humidity;BME280_pressure;Samples;Min_cycle;Max_cycle;Signal;HPM_P1;HPM_P2
2023/07/02 00:01:41;;;;;;;3.60;2.70;;;;;;;;;;5080175;28;20198;-70
2023/07/02 00:04:09;;;;;;;3.58;2.63;;;;;;;;;;5073246;28;20213;-70
2023/07/02 00:06:40;;;;;;;6.63;2.97;;;;;;;;;;5070247;28;20213;-70
2023/07/02 00:09:07;;;;;;;5.30;3.03;;;;;;;;;;5072269;28;20254;-70
2023/07/02 00:11:34;;;;;;;4.72;3.05;;;;;;;;;;5073323;28;20218;-70
2023/07/02 00:14:03;;;;;;;5.30;3.35;;;;;;;;;;5069827;28;20202;-70
2023/07/02 00:16:30;;;;;;;5.20;3.58;;;;;;;;;;5073865;28;20206;-70
2023/07/02 00:18:57;;;;;;;6.35;3.53;;;;;;;;;;5077889;28;20213;-70
2023/07/02 00:21:27;;;;;;;3.92;3.13;;;;;;;;;;5072601;28;20207;-70
2023/07/02 00:23:56;;;;;;;4.10;3.15;;;;;;;;;;5072963;28;20205;-71
2023/07/02 00:26:24;;;;;;;4.95;3.67;;;;;;;;;;5075331;28;20206;-71
2023/07/02 00:28:52;;;;;;;6.82;4.00;;;;;;;;;;5068365;28;20280;-70
2023/07/02 00:31:20;;;;;;;5.32;4.00;;;;;;;;;;5070224;28;20199;-70
2023/07/02 00:33:47;;;;;;;7.72;4.30;;;;;;;;;;5069188;28;20205;-70
2023/07/02 00:36:15;;;;;;;8.77;4.38;;;;;;;;;;5077730;28;20227;-71
2023/07/02 00:38:43;;;;;;;8.88;4.22;;;;;;;;;;5076465;28;20203;-71
2023/07/02 00:41:10;;;;;;;8.13;4.35;;;;;;;;;;5076161;28;20263;-71
2023/07/02 00:43:39;;;;;;;7.63;4.15;;;;;;;;;;5075064;28;20199;-70
2023/07/02 00:46:06;;;;;;;7.50;4.28;;;;;;;;;;5077218;28;20205;-72
2023/07/02 00:48:35;;;;;;;6.28;4.43;;;;;;;;;;5075797;28;20318;-70
2023/07/02 00:51:02;;;;;;;9.18;4.50;;;;;;;;;;5068540;28;20202;-70
2023/07/02 00:53:29;;;;;;;6.47;4.40;;;;;;;;;;5073991;28;20295;-71
2023/07/02 00:55:56;;;;;;;6.38;4.53;;;;;;;;;;5076232;28;20206;-71
2023/07/02 00:58:23;;;;;;;6.78;4.65;;;;;;;;;;5074407;28;20195;-71
2023/07/02 01:00:51;;;;;;;7.72;4.93;;;;;;;;;;5080821;28;20195;-71
2023/07/02 01:03:18;;;;;;;10.55;4.90;;;;;;;;;;5080603;28;20199;-72
2023/07/02 01:05:46;;;;;;;7.60;4.88;;;;;;;;;;5076073;28;20202;-71
2023/07/02 01:08:14;;;;;;;7.25;4.80;;;;;;;;;;5076777;28;20225;-72
2023/07/02 01:10:42;;;;;;;7.20;4.60;;;;;;;;;;5078812;28;20297;-72
2023/07/02 01:13:10;;;;;;;6.93;4.68;;;;;;;;;;5080657;28;20206;-72
2023/07/02 01:15:38;;;;;;;7.47;5.05;;;;;;;;;;5079004;28;20211;-72
2023/07/02 01:18:06;;;;;;;6.18;4.65;;;;;;;;;;5077296;28;20217;-71
2023/07/02 01:20:36;;;;;;;14.30;4.95;;;;;;;;;;5083056;28;20198;-73
2023/07/02 01:23:03;;;;;;;8.05;5.20;;;;;;;;;;5072126;28;20207;-72
2023/07/02 01:25:30;;;;;;;9.73;5.78;;;;;;;;;;5077963;28;20206;-73
2023/07/02 01:27:58;;;;;;;7.32;5.43;;;;;;;;;;5081961;28;20211;-73
2023/07/02 01:30:26;;;;;;;8.02;5.57;;;;;;;;;;5074351;28;20290;-72
2023/07/02 01:32:53;;;;;;;9.95;5.70;;;;;;;;;;5074401;28;20198;-72
2023/07/02 01:35:20;;;;;;;8.38;6.32;;;;;;;;;;5072007;28;20203;-71
2023/07/02 01:37:49;;;;;;;8.30;5.75;;;;;;;;;;5078588;28;20229;-73
2023/07/02 01:40:16;;;;;;;13.10;6.63;;;;;;;;;;5079342;28;20210;-72
2023/07/02 01:42:43;;;;;;;9.65;6.70;;;;;;;;;;5079475;28;20215;-73
2023/07/02 01:45:10;;;;;;;11.27;6.75;;;;;;;;;;5080414;28;20205;-72
2023/07/02 01:47:38;;;;;;;9.25;6.95;;;;;;;;;;5080587;28;20206;-71
2023/07/02 01:50:06;;;;;;;10.13;7.35;;;;;;;;;;5078357;28;20294;-71
2023/07/02 01:52:33;;;;;;;10.00;6.90;;;;;;;;;;5071624;28;20211;-71
2023/07/02 01:55:02;;;;;;;11.52;6.28;;;;;;;;;;5078894;28;20206;-73
2023/07/02 01:57:30;;;;;;;12.40;6.90;;;;;;;;;;5073419;28;20203;-72
2023/07/02 01:59:58;;;;;;;10.73;7.13;;;;;;;;;;5076367;28;20199;-72
2023/07/02 02:02:25;;;;;;;10.88;6.82;;;;;;;;;;5079969;28;20260;-72
2023/07/02 02:04:52;;;;;;;10.55;6.22;;;;;;;;;;5079936;28;20195;-73
2023/07/02 02:07:19;;;;;;;8.82;6.20;;;;;;;;;;5078571;28;20198;-72
2023/07/02 02:09:46;;;;;;;8.57;6.20;;;;;;;;;;5078856;28;20229;-69
2023/07/02 02:12:15;;;;;;;11.75;6.20;;;;;;;;;;5079326;28;20213;-72
2023/07/02 02:14:42;;;;;;;9.68;6.57;;;;;;;;;;5076893;28;20199;-73
2023/07/02 02:17:09;;;;;;;11.32;6.70;;;;;;;;;;5078979;28;20297;-73
2023/07/02 02:19:36;;;;;;;9.43;6.18;;;;;;;;;;5077349;28;20191;-73
2023/07/02 02:22:03;;;;;;;8.75;6.15;;;;;;;;;;5071088;28;20206;-72
2023/07/02 02:24:31;;;;;;;7.80;6.15;;;;;;;;;;5077744;28;20220;-73
2023/07/02 02:26:58;;;;;;;9.00;6.60;;;;;;;;;;5077599;28;20210;-72
2023/07/02 02:29:26;;;;;;;9.23;6.47;;;;;;;;;;5078104;28;20286;-72
2023/07/02 02:31:53;;;;;;;11.02;6.28;;;;;;;;;;5073518;28;20213;-72
2023/07/02 02:34:21;;;;;;;10.52;7.05;;;;;;;;;;5082657;28;20198;-71
2023/07/02 02:36:48;;;;;;;11.63;7.25;;;;;;;;;;5079280;28;20234;-72
2023/07/02 02:39:15;;;;;;;10.73;6.95;;;;;;;;;;5081758;28;20199;-71
2023/07/02 02:41:42;;;;;;;10.40;6.97;;;;;;;;;;5078897;28;20258;-73
2023/07/02 02:44:10;;;;;;;9.05;6.72;;;;;;;;;;5078346;28;20254;-71
2023/07/02 02:46:38;;;;;;;16.08;7.47;;;;;;;;;;5082194;28;20211;-71
2023/07/02 02:49:05;;;;;;;10.13;6.60;;;;;;;;;;5071118;28;20195;-71
2023/07/02 02:51:32;;;;;;;10.63;7.32;;;;;;;;;;5075751;28;20199;-72
2023/07/02 02:54:00;;;;;;;14.73;7.18;;;;;;;;;;5077132;28;20203;-72
2023/07/02 02:56:27;;;;;;;10.35;7.70;;;;;;;;;;5077693;28;20205;-73
2023/07/02 02:58:55;;;;;;;12.35;7.68;;;;;;;;;;5075627;28;20226;-72
2023/07/02 03:01:22;;;;;;;10.73;7.78;;;;;;;;;;5081210;28;20221;-72
2023/07/02 03:03:50;;;;;;;14.95;8.38;;;;;;;;;;5079819;28;20202;-72
2023/07/02 03:06:18;;;;;;;15.18;9.30;;;;;;;;;;5080658;28;20225;-72
2023/07/02 03:08:45;;;;;;;10.60;8.10;;;;;;;;;;5077899;28;20195;-72
2023/07/02 03:11:12;;;;;;;13.27;8.40;;;;;;;;;;5080558;28;20212;-72
2023/07/02 03:13:39;;;;;;;11.60;8.35;;;;;;;;;;5080895;28;20202;-72
2023/07/02 03:16:06;;;;;;;14.15;8.55;;;;;;;;;;5077332;28;20202;-71
2023/07/02 03:18:34;;;;;;;12.75;8.52;;;;;;;;;;5078697;28;20214;-72
2023/07/02 03:21:02;;;;;;;14.52;9.10;;;;;;;;;;5071591;28;20209;-72
2023/07/02 03:23:29;;;;;;;15.40;9.05;;;;;;;;;;5074396;28;20213;-72
2023/07/02 03:25:57;;;;;;;12.82;9.05;;;;;;;;;;5075727;28;20199;-72
2023/07/02 03:28:24;;;;;;;15.63;9.07;;;;;;;;;;5080842;28;20207;-72
2023/07/02 03:30:51;;;;;;;15.07;9.20;;;;;;;;;;5077249;28;20198;-72
2023/07/02 03:33:18;;;;;;;14.25;9.30;;;;;;;;;;5075124;28;20195;-72
2023/07/02 03:35:45;;;;;;;13.35;8.70;;;;;;;;;;5075745;28;20201;-71
2023/07/02 03:38:14;;;;;;;17.55;9.75;;;;;;;;;;5074582;28;20240;-72
2023/07/02 03:40:41;;;;;;;13.55;9.13;;;;;;;;;;5077551;28;20217;-72
2023/07/02 03:43:09;;;;;;;12.55;9.23;;;;;;;;;;5080331;28;20202;-70
2023/07/02 03:45:36;;;;;;;13.88;9.90;;;;;;;;;;5075263;28;20214;-71
2023/07/02 03:48:03;;;;;;;14.93;10.07;;;;;;;;;;5076988;28;20199;-71
2023/07/02 03:50:30;;;;;;;16.45;10.43;;;;;;;;;;5074485;28;20199;-71
2023/07/02 03:52:57;;;;;;;14.05;9.75;;;;;;;;;;5076399;28;20203;-71
2023/07/02 03:55:26;;;;;;;16.73;10.65;;;;;;;;;;5077674;28;20213;-72
2023/07/02 03:57:53;;;;;;;15.88;10.27;;;;;;;;;;5078916;28;20210;-72
2023/07/02 04:00:20;;;;;;;14.52;10.55;;;;;;;;;;5076439;28;20214;-72
2023/07/02 04:02:48;;;;;;;15.65;9.82;;;;;;;;;;5072637;28;20209;-72
2023/07/02 04:05:15;;;;;;;15.30;9.90;;;;;;;;;;5081626;28;20213;-72
2023/07/02 04:07:42;;;;;;;13.82;9.82;;;;;;;;;;5068724;28;20396;-72
2023/07/02 04:10:10;;;;;;;16.90;10.52;;;;;;;;;;5076636;28;20293;-72
2023/07/02 04:12:38;;;;;;;14.52;10.13;;;;;;;;;;5069232;28;20267;-69
2023/07/02 04:15:06;;;;;;;14.40;10.50;;;;;;;;;;5077059;28;20198;-71
2023/07/02 04:17:33;;;;;;;13.73;9.80;;;;;;;;;;5078280;28;20206;-71
2023/07/02 04:20:03;;;;;;;16.40;10.80;;;;;;;;;;5074529;28;20237;-71
2023/07/02 04:22:30;;;;;;;14.30;10.90;;;;;;;;;;5075836;28;20283;-71
2023/07/02 04:24:57;;;;;;;15.52;10.65;;;;;;;;;;5080600;28;20205;-70
2023/07/02 04:27:24;;;;;;;17.98;10.55;;;;;;;;;;5076995;28;20202;-72
2023/07/02 04:29:55;;;;;;;19.25;11.38;;;;;;;;;;5079035;28;20201;-71
2023/07/02 04:32:23;;;;;;;19.08;10.85;;;;;;;;;;5076964;28;20205;-70
2023/07/02 04:34:50;;;;;;;16.08;10.10;;;;;;;;;;5079403;28;20209;-71
2023/07/02 04:37:17;;;;;;;18.50;11.65;;;;;;;;;;5076869;28;20238;-71
2023/07/02 04:39:44;;;;;;;16.25;11.23;;;;;;;;;;5071591;28;20217;-70
2023/07/02 04:42:14;;;;;;;18.55;11.48;;;;;;;;;;5083617;28;20205;-72
2023/07/02 04:44:43;;;;;;;19.90;11.40;;;;;;;;;;5077229;28;20265;-72
2023/07/02 04:47:11;;;;;;;17.40;11.07;;;;;;;;;;5082097;28;20208;-71
2023/07/02 04:49:38;;;;;;;19.45;11.13;;;;;;;;;;5085743;28;20190;-71
2023/07/02 04:52:06;;;;;;;17.23;12.02;;;;;;;;;;5079250;28;20213;-71
2023/07/02 04:54:33;;;;;;;17.52;11.60;;;;;;;;;;5075197;28;20209;-70
2023/07/02 04:57:00;;;;;;;15.88;11.60;;;;;;;;;;5085558;28;20209;-71
2023/07/02 04:59:27;;;;;;;21.60;11.13;;;;;;;;;;5079593;28;20217;-71
2023/07/02 05:01:54;;;;;;;16.77;11.57;;;;;;;;;;5082465;28;20206;-71
2023/07/02 05:04:23;;;;;;;17.23;11.60;;;;;;;;;;5081639;28;20212;-71
2023/07/02 05:06:50;;;;;;;17.50;11.73;;;;;;;;;;5077504;28;20207;-70
2023/07/02 05:09:17;;;;;;;18.65;12.43;;;;;;;;;;5082783;28;20211;-71
2023/07/02 05:11:44;;;;;;;19.40;12.18;;;;;;;;;;5080798;28;20203;-72
2023/07/02 05:14:12;;;;;;;21.47;12.53;;;;;;;;;;5080105;28;20198;-70
2023/07/02 05:16:39;;;;;;;20.50;12.88;;;;;;;;;;5084163;28;20241;-69
2023/07/02 05:19:06;;;;;;;24.60;13.55;;;;;;;;;;5076590;28;20234;-69
2023/07/02 05:21:34;;;;;;;20.27;12.75;;;;;;;;;;5084063;28;20205;-70
2023/07/02 05:24:02;;;;;;;21.52;13.60;;;;;;;;;;5084370;28;20205;-70
2023/07/02 05:26:29;;;;;;;18.60;12.90;;;;;;;;;;5080352;28;20203;-70
2023/07/02 05:28:56;;;;;;;20.23;13.32;;;;;;;;;;5084518;28;20217;-69
2023/07/02 05:31:23;;;;;;;20.15;13.25;;;;;;;;;;5075160;28;20199;-69
2023/07/02 05:33:50;;;;;;;23.05;13.88;;;;;;;;;;5079262;28;20194;-69
2023/07/02 05:36:18;;;;;;;22.90;13.98;;;;;;;;;;5083579;28;20234;-70
2023/07/02 05:38:46;;;;;;;24.92;14.70;;;;;;;;;;5083051;28;20214;-67
2023/07/02 05:41:19;;;;;;;22.65;13.80;;;;;;;;;;5081307;28;20232;-68
2023/07/02 05:43:46;;;;;;;23.25;14.18;;;;;;;;;;5080735;28;20207;-69
2023/07/02 05:46:14;;;;;;;22.90;14.75;;;;;;;;;;5074431;28;20199;-69
2023/07/02 05:48:41;;;;;;;18.85;13.35;;;;;;;;;;5078680;28;20210;-69
2023/07/02 05:51:08;;;;;;;23.40;14.50;;;;;;;;;;5086346;28;20210;-69
2023/07/02 05:53:36;;;;;;;24.10;15.38;;;;;;;;;;5082591;28;20207;-70
2023/07/02 05:56:04;;;;;;;25.80;15.57;;;;;;;;;;5078562;28;20203;-69
2023/07/02 05:58:32;;;;;;;21.20;14.93;;;;;;;;;;5079909;28;20207;-67
2023/07/02 06:00:59;;;;;;;25.13;15.70;;;;;;;;;;5081218;28;20286;-68
2023/07/02 06:03:26;;;;;;;25.13;16.23;;;;;;;;;;5073980;28;20198;-67
2023/07/02 06:05:53;;;;;;;24.33;15.57;;;;;;;;;;5077292;28;20206;-68
2023/07/02 06:08:20;;;;;;;26.48;17.00;;;;;;;;;;5077381;28;20199;-66
2023/07/02 06:10:48;;;;;;;23.55;15.55;;;;;;;;;;5078310;28;20199;-67
2023/07/02 06:13:16;;;;;;;25.98;16.35;;;;;;;;;;5080319;28;20207;-66
2023/07/02 06:15:44;;;;;;;26.10;16.35;;;;;;;;;;5078895;28;20202;-66
2023/07/02 06:18:11;;;;;;;24.85;16.67;;;;;;;;;;5081008;28;20298;-67
2023/07/02 06:20:38;;;;;;;25.23;16.00;;;;;;;;;;5071236;28;20230;-65
2023/07/02 06:23:05;;;;;;;23.50;16.65;;;;;;;;;;5076205;28;20199;-66
2023/07/02 06:25:33;;;;;;;25.92;15.82;;;;;;;;;;5075642;28;20213;-66
2023/07/02 06:28:00;;;;;;;29.20;16.95;;;;;;;;;;5078463;28;20206;-65
2023/07/02 06:30:29;;;;;;;25.42;16.48;;;;;;;;;;5076075;28;20194;-66
2023/07/02 06:32:56;;;;;;;24.92;16.05;;;;;;;;;;5078310;28;20194;-65
2023/07/02 06:35:24;;;;;;;25.42;17.17;;;;;;;;;;5076809;28;20211;-65
2023/07/02 06:37:51;;;;;;;25.73;16.33;;;;;;;;;;5078953;28;20238;-65
2023/07/02 06:40:18;;;;;;;25.40;16.75;;;;;;;;;;5077577;28;20230;-65
2023/07/02 06:42:45;;;;;;;22.88;15.38;;;;;;;;;;5079768;28;20235;-65
2023/07/02 06:45:12;;;;;;;30.13;17.00;;;;;;;;;;5080773;28;20310;-65
2023/07/02 06:47:41;;;;;;;22.90;15.93;;;;;;;;;;5077687;28;20217;-65
2023/07/02 06:50:08;;;;;;;25.00;16.73;;;;;;;;;;5080586;28;20214;-67
2023/07/02 06:52:36;;;;;;;25.58;16.85;;;;;;;;;;5075843;28;20213;-68
2023/07/02 06:55:03;;;;;;;27.13;17.10;;;;;;;;;;5073958;28;20290;-67
2023/07/02 06:57:30;;;;;;;22.83;16.42;;;;;;;;;;5077742;28;20204;-65
2023/07/02 07:00:00;;;;;;;25.35;17.02;;;;;;;;;;5079765;28;20237;-66
2023/07/02 07:02:27;;;;;;;26.70;15.75;;;;;;;;;;5072837;28;20281;-66
2023/07/02 07:04:55;;;;;;;20.25;15.45;;;;;;;;;;5080119;28;20213;-65
2023/07/02 07:07:22;;;;;;;26.65;17.33;;;;;;;;;;5070752;28;20205;-64
2023/07/02 07:09:50;;;;;;;25.45;16.33;;;;;;;;;;5080320;28;20202;-65
2023/07/02 07:12:17;;;;;;;24.05;16.55;;;;;;;;;;5082340;28;20217;-66
2023/07/02 07:14:44;;;;;;;27.50;17.10;;;;;;;;;;5083439;28;20205;-65
2023/07/02 07:17:11;;;;;;;28.73;17.50;;;;;;;;;;5079157;28;20229;-65
2023/07/02 07:19:38;;;;;;;25.45;16.67;;;;;;;;;;5076790;28;20207;-65
2023/07/02 07:22:07;;;;;;;26.80;16.88;;;;;;;;;;5071063;28;20205;-65
2023/07/02 07:24:34;;;;;;;28.73;17.45;;;;;;;;;;5082888;28;20209;-69
2023/07/02 07:27:01;;;;;;;25.55;16.42;;;;;;;;;;5081618;28;20206;-67
2023/07/02 07:29:28;;;;;;;26.48;17.33;;;;;;;;;;5080132;28;20216;-70
2023/07/02 07:31:56;;;;;;;25.98;17.70;;;;;;;;;;5082044;28;20211;-67
2023/07/02 07:34:23;;;;;;;25.48;16.88;;;;;;;;;;5080104;28;20217;-66
2023/07/02 07:36:50;;;;;;;25.38;17.60;;;;;;;;;;5079593;28;20259;-68
2023/07/02 07:39:18;;;;;;;31.30;17.60;;;;;;;;;;5077468;28;20202;-68
2023/07/02 07:41:49;;;;;;;26.75;17.17;;;;;;;;;;5080372;28;20238;-63
2023/07/02 07:44:16;;;;;;;28.48;18.55;;;;;;;;;;5082565;28;20280;-67
2023/07/02 07:46:43;;;;;;;22.77;17.17;;;;;;;;;;5078762;28;20214;-65
2023/07/02 07:49:10;;;;;;;26.65;17.42;;;;;;;;;;5079007;28;20234;-68
2023/07/02 07:51:37;;;;;;;27.42;17.60;;;;;;;;;;5076074;28;20195;-65
2023/07/02 07:54:05;;;;;;;24.60;17.40;;;;;;;;;;5082432;28;20210;-64
2023/07/02 07:56:33;;;;;;;25.38;17.45;;;;;;;;;;5069363;28;20203;-67
2023/07/02 07:59:00;;;;;;;27.05;17.23;;;;;;;;;;5078197;28;20210;-66
2023/07/02 08:01:28;;;;;;;25.27;16.75;;;;;;;;;;5080506;28;20222;-65
2023/07/02 08:03:55;;;;;;;25.40;16.88;;;;;;;;;;5075928;28;20210;-71
2023/07/02 08:06:22;;;;;;;26.52;16.80;;;;;;;;;;5069212;28;20203;-69
2023/07/02 08:08:49;;;;;;;27.52;17.05;;;;;;;;;;5076069;28;20203;-71
2023/07/02 08:11:16;;;;;;;24.02;16.67;;;;;;;;;;5078839;28;20196;-67
2023/07/02 08:13:45;;;;;;;23.95;15.98;;;;;;;;;;5079535;28;20212;-69
2023/07/02 08:16:13;;;;;;;22.00;15.93;;;;;;;;;;5081824;28;20210;-67
2023/07/02 08:18:40;;;;;;;30.60;17.48;;;;;;;;;;5070245;28;20210;-66
2023/07/02 08:21:07;;;;;;;29.50;17.25;;;;;;;;;;5069615;28;20222;-66
2023/07/02 08:23:35;;;;;;;27.25;17.13;;;;;;;;;;5077169;28;20213;-67
2023/07/02 08:26:02;;;;;;;26.13;16.83;;;;;;;;;;5076444;28;20195;-68
2023/07/02 08:28:30;;;;;;;24.27;16.83;;;;;;;;;;5078424;28;20228;-71
2023/07/02 08:30:59;;;;;;;26.98;16.55;;;;;;;;;;5074002;28;20222;-70
2023/07/02 08:33:26;;;;;;;22.10;16.60;;;;;;;;;;5073091;28;20290;-67
2023/07/02 08:35:53;;;;;;;28.45;18.10;;;;;;;;;;5077252;28;20213;-69
2023/07/02 08:38:20;;;;;;;26.52;16.98;;;;;;;;;;5072591;28;20249;-68
2023/07/02 08:40:47;;;;;;;24.08;16.80;;;;;;;;;;5079613;28;20226;-68
2023/07/02 08:43:15;;;;;;;26.55;17.70;;;;;;;;;;5085560;28;20205;-67
2023/07/02 08:45:42;;;;;;;25.63;17.33;;;;;;;;;;5074456;28;20194;-65
2023/07/02 08:48:12;;;;;;;24.88;16.88;;;;;;;;;;5073986;28;20297;-69
2023/07/02 08:50:39;;;;;;;26.40;17.27;;;;;;;;;;5077032;28;20221;-70
2023/07/02 08:53:06;;;;;;;24.33;16.77;;;;;;;;;;5074442;28;20207;-67
2023/07/02 08:55:33;;;;;;;25.98;16.75;;;;;;;;;;5072334;28;20202;-69
2023/07/02 08:58:00;;;;;;;22.27;16.77;;;;;;;;;;5069826;28;20202;-66
2023/07/02 09:00:30;;;;;;;23.98;15.98;;;;;;;;;;5072792;28;20213;-70
2023/07/02 09:02:58;;;;;;;25.45;16.45;;;;;;;;;;5069828;28;20275;-69
2023/07/02 09:05:26;;;;;;;26.45;17.15;;;;;;;;;;5075191;28;20199;-69
2023/07/02 09:07:53;;;;;;;24.55;15.85;;;;;;;;;;5078402;28;20207;-68
2023/07/02 09:10:27;;;;;;;24.00;16.10;;;;;;;;;;5075029;28;20203;-69
2023/07/02 09:13:04;;;;;;;22.50;16.02;;;;;;;;;;5073955;28;20206;-67
2023/07/02 09:15:36;;;;;;;26.65;16.60;;;;;;;;;;5069083;28;20256;-71
2023/07/02 09:18:03;;;;;;;29.63;16.70;;;;;;;;;;5078146;28;20214;-73
2023/07/02 09:20:35;;;;;;;28.85;16.73;;;;;;;;;;5077821;28;20223;-66
2023/07/02 09:23:02;;;;;;;21.55;16.70;;;;;;;;;;5074663;28;20195;-70
2023/07/02 09:25:35;;;;;;;22.20;15.93;;;;;;;;;;5081027;28;20328;-68
2023/07/02 09:28:04;;;;;;;24.15;15.65;;;;;;;;;;5079913;28;20203;-65
2023/07/02 09:30:31;;;;;;;21.45;14.88;;;;;;;;;;5080398;28;20195;-64
2023/07/02 09:33:08;;;;;;;20.10;14.40;;;;;;;;;;5076360;28;20213;-68
2023/07/02 09:35:38;;;;;;;23.00;15.73;;;;;;;;;;5077959;28;20297;-66
2023/07/02 09:38:05;;;;;;;19.85;14.55;;;;;;;;;;5085079;28;20237;-64
2023/07/02 09:40:33;;;;;;;20.95;15.13;;;;;;;;;;5080516;28;20233;-68
2023/07/02 09:43:00;;;;;;;19.40;14.23;;;;;;;;;;5076406;28;20207;-68
2023/07/02 09:45:28;;;;;;;21.38;14.82;;;;;;;;;;5081458;28;20206;-65
2023/07/02 09:47:57;;;;;;;21.95;14.75;;;;;;;;;;5078791;28;20205;-67
2023/07/02 09:50:25;;;;;;;20.08;14.57;;;;;;;;;;5076197;28;20213;-64
2023/07/02 09:52:53;;;;;;;21.40;14.10;;;;;;;;;;5072725;28;20199;-65
2023/07/02 09:55:21;;;;;;;19.52;13.90;;;;;;;;;;5077702;28;20198;-65
2023/07/02 09:57:48;;;;;;;20.48;13.65;;;;;;;;;;5080324;28;20194;-65
2023/07/02 10:00:16;;;;;;;20.95;12.63;;;;;;;;;;5087989;28;20206;-63
2023/07/02 10:02:43;;;;;;;16.98;13.18;;;;;;;;;;5073435;28;20244;-63
2023/07/02 10:05:10;;;;;;;18.25;12.98;;;;;;;;;;5074700;28;20209;-65
2023/07/02 10:07:37;;;;;;;19.10;13.07;;;;;;;;;;5079325;28;20206;-63
2023/07/02 10:10:06;;;;;;;16.52;13.05;;;;;;;;;;5075990;28;20206;-65
2023/07/02 10:12:33;;;;;;;20.60;12.43;;;;;;;;;;5073456;28;20206;-64
2023/07/02 10:15:01;;;;;;;14.65;11.85;;;;;;;;;;5085504;28;20206;-65
2023/07/02 10:17:30;;;;;;;18.17;12.63;;;;;;;;;;5076639;28;20199;-64
2023/07/02 10:19:58;;;;;;;19.52;12.70;;;;;;;;;;5078785;28;20234;-64
2023/07/02 10:22:25;;;;;;;16.23;11.77;;;;;;;;;;5080161;28;20230;-65
2023/07/02 10:24:53;;;;;;;17.10;12.43;;;;;;;;;;5080272;28;20203;-64
2023/07/02 10:27:22;;;;;;;18.50;12.68;;;;;;;;;;5082440;28;20265;-67
2023/07/02 10:29:52;;;;;;;15.13;11.57;;;;;;;;;;5078903;28;20195;-65
2023/07/02 10:32:28;;;;;;;15.98;11.57;;;;;;;;;;5076920;28;20203;-67
2023/07/02 10:34:56;;;;;;;16.63;12.23;;;;;;;;;;5074823;28;20264;-64
2023/07/02 10:37:23;;;;;;;16.83;11.35;;;;;;;;;;5078256;28;20261;-65
2023/07/02 10:39:51;;;;;;;15.52;11.05;;;;;;;;;;5082901;28;20292;-65
2023/07/02 10:42:19;;;;;;;15.32;11.60;;;;;;;;;;5080251;28;20222;-64
2023/07/02 10:44:51;;;;;;;16.02;11.30;;;;;;;;;;5071099;28;20230;-64
2023/07/02 10:47:19;;;;;;;17.08;11.65;;;;;;;;;;5078666;28;20202;-65
2023/07/02 10:49:46;;;;;;;14.68;10.80;;;;;;;;;;5081950;28;20198;-64
2023/07/02 10:52:13;;;;;;;15.70;11.35;;;;;;;;;;5081558;28;20240;-64
2023/07/02 10:54:41;;;;;;;13.55;10.60;;;;;;;;;;5076612;28;20206;-66
2023/07/02 10:57:08;;;;;;;19.02;11.10;;;;;;;;;;5077176;28;20218;-66
2023/07/02 10:59:36;;;;;;;17.10;12.07;;;;;;;;;;5080037;28;20209;-65
2023/07/02 11:02:06;;;;;;;14.95;11.60;;;;;;;;;;5076411;28;20242;-65
2023/07/02 11:04:33;;;;;;;17.48;11.52;;;;;;;;;;5078523;28;20206;-64
2023/07/02 11:07:01;;;;;;;13.68;11.27;;;;;;;;;;5077801;28;20216;-64
2023/07/02 11:09:28;;;;;;;17.08;10.90;;;;;;;;;;5079766;28;20241;-63
2023/07/02 11:11:56;;;;;;;15.63;11.90;;;;;;;;;;5079449;28;20207;-64
2023/07/02 11:14:29;;;;;;;13.65;10.52;;;;;;;;;;5078157;28;20215;-64
2023/07/02 11:16:57;;;;;;;15.50;11.70;;;;;;;;;;5080045;28;20214;-65
2023/07/02 11:19:25;;;;;;;14.40;11.63;;;;;;;;;;5077722;28;20212;-63
2023/07/02 11:21:53;;;;;;;14.98;11.80;;;;;;;;;;5078538;28;20224;-63
2023/07/02 11:24:28;;;;;;;16.23;11.77;;;;;;;;;;5076221;28;20294;-65
2023/07/02 11:26:56;;;;;;;18.13;12.50;;;;;;;;;;5078087;28;20209;-63
2023/07/02 11:29:23;;;;;;;18.45;11.95;;;;;;;;;;5079310;28;20217;-66
2023/07/02 11:31:50;;;;;;;14.70;11.55;;;;;;;;;;5076355;28;20221;-63
2023/07/02 11:34:18;;;;;;;19.38;12.00;;;;;;;;;;5078064;28;20209;-65
2023/07/02 11:36:47;;;;;;;16.08;11.82;;;;;;;;;;5075186;28;20237;-65
2023/07/02 11:39:15;;;;;;;15.90;11.60;;;;;;;;;;5075808;28;20207;-66
2023/07/02 11:41:43;;;;;;;16.55;11.68;;;;;;;;;;5073385;28;20226;-64
2023/07/02 11:44:11;;;;;;;14.02;11.75;;;;;;;;;;5076319;28;20198;-65
2023/07/02 11:46:38;;;;;;;14.52;11.00;;;;;;;;;;5078655;28;20206;-65
2023/07/02 11:49:08;;;;;;;16.40;12.25;;;;;;;;;;5075327;28;20198;-64
2023/07/02 11:51:35;;;;;;;18.05;12.25;;;;;;;;;;5074227;28;20287;-64
2023/07/02 11:54:04;;;;;;;14.00;11.68;;;;;;;;;;5076737;28;20203;-63
2023/07/02 11:56:31;;;;;;;17.42;11.65;;;;;;;;;;5076005;28;20203;-65
2023/07/02 11:58:58;;;;;;;16.98;11.95;;;;;;;;;;5078620;28;20206;-67
2023/07/02 12:01:26;;;;;;;14.52;11.35;;;;;;;;;;5074503;28;20222;-66
2023/07/02 12:03:53;;;;;;;16.40;11.57;;;;;;;;;;5077057;28;20199;-66
2023/07/02 12:06:20;;;;;;;17.17;11.70;;;;;;;;;;5075547;28;20214;-65
2023/07/02 12:08:47;;;;;;;13.88;12.00;;;;;;;;;;5075797;28;20201;-64
2023/07/02 12:11:16;;;;;;;15.23;10.95;;;;;;;;;;5070613;28;20206;-63
2023/07/02 12:13:43;;;;;;;14.82;10.65;;;;;;;;;;5075042;28;20212;-64
2023/07/02 12:16:10;;;;;;;16.80;11.35;;;;;;;;;;5070526;28;20221;-64
2023/07/02 12:18:37;;;;;;;14.23;11.52;;;;;;;;;;5078710;28;20210;-63
2023/07/02 12:21:04;;;;;;;15.20;11.02;;;;;;;;;;5083336;28;20233;-65
2023/07/02 12:23:31;;;;;;;16.35;11.52;;;;;;;;;;5078342;28;20262;-65
2023/07/02 12:25:59;;;;;;;16.05;11.48;;;;;;;;;;5082935;28;20232;-65
2023/07/02 12:28:27;;;;;;;16.90;11.50;;;;;;;;;;5085232;28;20209;-65
2023/07/02 12:30:54;;;;;;;17.38;11.98;;;;;;;;;;5080508;28;20213;-64
2023/07/02 12:33:22;;;;;;;18.73;12.30;;;;;;;;;;5077565;28;20209;-64
2023/07/02 12:35:49;;;;;;;15.48;11.77;;;;;;;;;;5080953;28;20220;-67
2023/07/02 12:38:16;;;;;;;19.63;12.30;;;;;;;;;;5075605;28;20237;-66
2023/07/02 12:40:43;;;;;;;14.95;11.15;;;;;;;;;;5080131;28;20205;-65
2023/07/02 12:43:11;;;;;;;18.88;12.23;;;;;;;;;;5079943;28;20238;-66
2023/07/02 12:45:39;;;;;;;14.63;11.35;;;;;;;;;;5083699;28;20212;-64
2023/07/02 12:48:06;;;;;;;16.85;11.48;;;;;;;;;;5078595;28;20206;-65
2023/07/02 12:50:33;;;;;;;15.57;12.00;;;;;;;;;;5075199;28;20210;-66
2023/07/02 12:53:01;;;;;;;16.27;11.55;;;;;;;;;;5078143;28;20206;-67
2023/07/02 12:55:28;;;;;;;16.33;11.35;;;;;;;;;;5073609;28;20217;-65
2023/07/02 12:57:55;;;;;;;13.80;10.93;;;;;;;;;;5079029;28;20213;-65
2023/07/02 13:00:22;;;;;;;18.27;12.20;;;;;;;;;;5076948;28;20198;-63
2023/07/02 13:02:51;;;;;;;15.95;11.20;;;;;;;;;;5087720;28;20218;-64
2023/07/02 13:05:18;;;;;;;13.13;10.52;;;;;;;;;;5071363;28;20213;-63
2023/07/02 13:07:45;;;;;;;14.15;10.38;;;;;;;;;;5073881;28;20205;-65
2023/07/02 13:10:12;;;;;;;16.30;10.55;;;;;;;;;;5080137;28;20193;-65
2023/07/02 13:12:39;;;;;;;13.65;10.27;;;;;;;;;;5087967;28;20198;-63
2023/07/02 13:15:07;;;;;;;14.98;10.90;;;;;;;;;;5088442;28;20212;-63
2023/07/02 13:17:34;;;;;;;14.13;10.88;;;;;;;;;;5088402;28;20221;-67
2023/07/02 13:20:04;;;;;;;16.65;12.13;;;;;;;;;;5084888;28;20206;-65
2023/07/02 13:22:31;;;;;;;13.73;10.85;;;;;;;;;;5085229;28;20218;-64
2023/07/02 13:24:58;;;;;;;16.65;10.93;;;;;;;;;;5075922;28;20207;-63
2023/07/02 13:27:25;;;;;;;14.55;10.18;;;;;;;;;;5076878;28;20213;-63
2023/07/02 13:29:52;;;;;;;16.42;11.15;;;;;;;;;;5083440;28;20206;-64
2023/07/02 13:32:20;;;;;;;14.52;10.43;;;;;;;;;;5084765;28;20209;-67
2023/07/02 13:34:47;;;;;;;13.88;10.25;;;;;;;;;;5079645;28;20202;-64
2023/07/02 13:37:17;;;;;;;18.35;10.30;;;;;;;;;;5082502;28;20261;-65
2023/07/02 13:39:45;;;;;;;14.35;10.57;;;;;;;;;;5075726;28;20266;-65
2023/07/02 13:42:12;;;;;;;16.30;10.40;;;;;;;;;;5078773;28;20225;-64
2023/07/02 13:44:39;;;;;;;16.55;9.82;;;;;;;;;;5081949;28;20199;-66
2023/07/02 13:47:07;;;;;;;13.88;9.85;;;;;;;;;;5085096;28;20224;-66
2023/07/02 13:49:34;;;;;;;12.38;10.00;;;;;;;;;;5088022;28;20210;-65
2023/07/02 13:52:01;;;;;;;13.40;10.18;;;;;;;;;;5082850;28;20217;-69
2023/07/02 13:54:30;;;;;;;12.40;9.95;;;;;;;;;;5081268;28;20218;-69
2023/07/02 13:56:58;;;;;;;13.45;10.07;;;;;;;;;;5083255;28;20206;-63
2023/07/02 13:59:27;;;;;;;16.52;10.48;;;;;;;;;;5090168;28;20256;-65
2023/07/02 14:01:54;;;;;;;12.88;9.85;;;;;;;;;;5075161;28;20209;-65
2023/07/02 14:04:21;;;;;;;14.45;10.93;;;;;;;;;;5080520;28;20205;-65
2023/07/02 14:06:48;;;;;;;13.93;9.85;;;;;;;;;;5087392;28;20209;-65
2023/07/02 14:09:15;;;;;;;15.18;10.48;;;;;;;;;;5079446;28;20202;-64
2023/07/02 14:11:43;;;;;;;12.30;10.07;;;;;;;;;;5083825;28;20216;-65
2023/07/02 14:14:11;;;;;;;13.20;10.25;;;;;;;;;;5083201;28;20263;-64
2023/07/02 14:16:40;;;;;;;14.30;9.48;;;;;;;;;;5087952;28;20255;-63
2023/07/02 14:19:08;;;;;;;15.05;10.25;;;;;;;;;;5081406;28;20263;-63
2023/07/02 14:21:35;;;;;;;16.17;10.57;;;;;;;;;;5084694;28;20212;-63
2023/07/02 14:24:03;;;;;;;13.48;10.50;;;;;;;;;;5081874;28;20232;-63
2023/07/02 14:26:30;;;;;;;14.45;10.30;;;;;;;;;;5080788;28;20217;-66